createdAt,value
2022-11-30T09:14:23.438Z,100868.41
2022-11-30T09:17:09.628Z,100868.41
2022-11-30T09:19:55.472Z,100862.81
2022-11-30T09:22:42.548Z,100858.81
2022-11-30T09:25:28.541Z,100858.47
2022-11-30T09:28:15.004Z,100859.88
2022-11-30T09:31:04.773Z,100859.81
2022-11-30T09:33:51.388Z,100858.28
2022-11-30T09:36:37.581Z,100861.69
2022-11-30T09:39:23.705Z,100848.88
2022-11-30T09:42:16.506Z,100855.75
2022-11-30T09:45:06.365Z,100854.66
2022-11-30T09:47:55.390Z,100857.28
2022-11-30T09:50:50.277Z,100852.06
2022-11-30T09:53:41.679Z,100852.12
2022-11-30T09:56:28.469Z,100847.75
2022-11-30T09:59:26.479Z,100850.91
2022-11-30T10:02:16.913Z,100847.59
2022-11-30T10:05:03.363Z,100849.31
2022-11-30T10:08:01.957Z,100848.28
2022-11-30T10:11:25.986Z,100853.63
2022-11-30T10:14:33.822Z,100842.19
2022-11-30T10:17:47.876Z,100831.25
2022-11-30T10:20:51.976Z,100833.25
2022-11-30T10:23:53.672Z,100832.34
2022-11-30T10:26:40.069Z,100823.50
2022-11-30T10:29:29.385Z,100816.63
2022-11-30T10:32:22.531Z,100811.69
2022-11-30T10:36:03.260Z,100810.13
2022-11-30T10:39:50.824Z,100810.78
2022-11-30T10:42:41.939Z,100811.13
2022-11-30T10:45:27.727Z,100806.97
2022-11-30T10:48:43.144Z,100805.75
2022-11-30T10:51:29.192Z,100810.78
2022-11-30T10:54:16.241Z,100804.56
2022-11-30T10:57:03.448Z,100808.50
2022-11-30T10:59:51.028Z,100802.00
2022-11-30T11:02:41.958Z,100811.97
2022-11-30T11:05:29.080Z,100813.66
2022-11-30T11:08:22.473Z,100805.28
2022-11-30T11:11:35.708Z,100802.22
2022-11-30T11:14:23.007Z,100801.00
2022-11-30T11:17:18.543Z,100804.62
2022-11-30T11:20:04.936Z,100805.31
2022-11-30T11:22:50.842Z,100782.31
2022-11-30T11:25:37.327Z,100803.56
2022-11-30T11:28:24.581Z,100799.16
2022-11-30T11:31:32.922Z,100806.53
2022-11-30T11:34:36.830Z,100803.84
2022-11-30T11:37:33.886Z,100815.59
2022-11-30T11:41:50.016Z,100809.59
2022-11-30T11:44:53.375Z,100809.59
2022-11-30T11:48:00.446Z,100811.97
2022-11-30T11:51:10.625Z,100809.06
2022-11-30T11:54:20.187Z,100803.22
2022-11-30T11:57:41.665Z,100813.56
2022-11-30T12:00:44.237Z,100811.81
2022-11-30T12:03:52.954Z,100812.34
2022-11-30T12:06:55.360Z,100803.06
2022-11-30T12:10:51.381Z,100802.87
2022-11-30T12:13:48.673Z,100800.31
2022-11-30T12:17:16.452Z,100805.81
2022-11-30T12:20:49.861Z,100796.87
2022-11-30T12:23:57.316Z,100797.56
2022-11-30T12:27:19.324Z,100796.34
2022-11-30T12:30:27.677Z,100800.31
2022-11-30T12:33:40.819Z,100793.75
2022-11-30T12:36:47.305Z,100798.09
2022-11-30T12:40:14.481Z,100795.47
2022-11-30T12:43:43.175Z,100788.63
2022-11-30T12:46:51.429Z,100785.94
2022-11-30T12:50:01.668Z,100788.22
2022-11-30T12:53:32.850Z,100792.16
2022-11-30T12:56:46.583Z,100787.69
2022-11-30T13:00:09.245Z,100791.16
2022-11-30T13:03:43.873Z,100783.75
2022-11-30T13:06:53.364Z,100772.09
2022-11-30T13:10:07.328Z,100782.59
2022-11-30T13:13:14.969Z,100780.00
2022-11-30T13:16:17.557Z,100781.91
2022-11-30T13:19:33.435Z,100783.13
2022-11-30T13:23:01.500Z,100784.31
2022-11-30T13:26:22.576Z,100785.53
2022-11-30T13:30:04.061Z,100784.84
2022-11-30T13:33:34.928Z,100786.41
2022-11-30T13:36:44.698Z,100776.94
2022-11-30T13:39:51.436Z,100786.22
2022-11-30T13:42:54.950Z,100785.19
2022-11-30T13:46:12.287Z,100792.41
2022-11-30T13:49:17.761Z,100793.09
2022-11-30T13:52:23.301Z,100790.53
2022-11-30T13:55:41.342Z,100787.44
2022-11-30T13:59:25.042Z,100786.22
2022-11-30T14:02:36.420Z,100791.19
2022-11-30T14:05:46.675Z,100789.47
2022-11-30T14:08:49.049Z,100789.31
2022-11-30T14:11:51.668Z,100792.75
2022-11-30T14:14:54.199Z,100790.66
2022-11-30T14:17:57.128Z,100792.00
2022-11-30T14:21:21.400Z,100795.78
2022-11-30T14:24:23.989Z,100790.94
2022-11-30T14:27:27.418Z,100794.91
2022-11-30T14:30:32.640Z,100786.63
2022-11-30T14:33:54.532Z,100787.22
2022-11-30T14:37:00.648Z,100775.34
2022-11-30T14:40:05.220Z,100778.44
2022-11-30T14:43:15.052Z,100779.13
2022-11-30T14:46:17.373Z,100779.97
2022-11-30T14:49:23.676Z,100767.91
2022-11-30T14:52:44.306Z,100770.47
2022-11-30T14:56:15.086Z,100764.94
2022-11-30T14:59:30.699Z,100791.84
2022-11-30T15:02:37.336Z,100773.66
2022-11-30T15:05:39.720Z,100773.09
2022-11-30T15:08:44.204Z,100781.06
2022-11-30T15:11:47.504Z,100776.81
2022-11-30T15:15:05.603Z,100779.56
2022-11-30T15:18:16.247Z,100778.38
2022-11-30T15:21:24.065Z,100777.03
2022-11-30T15:24:26.772Z,100768.28
2022-11-30T15:27:29.495Z,100773.44
2022-11-30T15:30:33.159Z,100774.16
2022-11-30T15:34:02.056Z,100766.25
2022-11-30T15:37:04.417Z,100775.22
2022-11-30T15:40:08.299Z,100769.37
2022-11-30T15:43:22.401Z,100766.94
2022-11-30T15:46:39.777Z,100767.78
2022-11-30T15:49:51.403Z,100762.47
2022-11-30T15:53:00.907Z,100766.59
2022-11-30T15:56:07.540Z,100768.47
2022-11-30T15:59:24.256Z,100766.59
2022-11-30T16:02:36.464Z,100766.94
2022-11-30T16:05:39.528Z,100776.25
2022-11-30T16:08:46.509Z,100772.78
2022-11-30T16:11:53.850Z,100769.88
2022-11-30T16:14:56.508Z,100774.84
2022-11-30T16:18:01.017Z,100773.13
2022-11-30T16:21:03.838Z,100765.75
2022-11-30T16:24:06.555Z,100774.84
2022-11-30T16:27:17.329Z,100777.81
2022-11-30T16:30:21.400Z,100768.50
2022-11-30T16:33:25.164Z,100771.44
2022-11-30T16:36:30.007Z,100765.22
2022-11-30T16:39:32.363Z,100756.28
2022-11-30T16:42:34.875Z,100755.09
2022-11-30T16:45:37.585Z,100758.19
2022-11-30T16:48:40.308Z,100758.53
2022-11-30T16:51:42.717Z,100763.88
2022-11-30T16:54:45.562Z,100771.25
2022-11-30T16:57:48.170Z,100777.62
2022-11-30T17:00:50.960Z,100769.72
2022-11-30T17:03:53.320Z,100772.28
2022-11-30T17:07:02.025Z,100773.50
2022-11-30T17:10:05.975Z,100773.34
2022-11-30T17:13:14.715Z,100781.75
2022-11-30T17:16:17.449Z,100785.16
2022-11-30T17:19:20.131Z,100784.50
2022-11-30T17:22:22.408Z,100777.09
2022-11-30T17:25:24.959Z,100781.75
2022-11-30T17:28:27.606Z,100781.75
2022-11-30T17:31:30.243Z,100790.19
2022-11-30T17:34:32.573Z,100787.25
2022-11-30T17:37:35.263Z,100785.50
2022-11-30T17:40:41.819Z,100786.22
2022-11-30T17:43:44.498Z,100788.09
2022-11-30T17:46:48.439Z,100787.25
2022-11-30T17:49:51.391Z,100788.09
2022-11-30T17:52:54.168Z,100788.09
2022-11-30T17:56:09.865Z,100785.50
2022-11-30T17:59:12.423Z,100791.88
2022-11-30T18:02:15.094Z,100792.75
2022-11-30T18:05:21.483Z,100799.28
2022-11-30T18:08:24.099Z,100792.94
2022-11-30T18:11:26.949Z,100802.03
2022-11-30T18:14:29.300Z,100795.69
2022-11-30T18:17:32.100Z,100798.25
2022-11-30T18:20:34.363Z,100789.31
2022-11-30T18:23:37.149Z,100798.25
2022-11-30T18:26:39.536Z,100789.13
2022-11-30T18:29:42.321Z,100793.63
2022-11-30T18:32:44.632Z,100794.62
2022-11-30T18:35:47.271Z,100795.50
2022-11-30T18:38:49.649Z,100793.75
2022-11-30T18:41:52.543Z,100802.03
2022-11-30T18:44:55.912Z,100806.50
2022-11-30T18:47:58.520Z,100805.63
2022-11-30T18:51:12.881Z,100803.75
2022-11-30T18:54:15.463Z,100812.69
2022-11-30T18:57:17.796Z,100815.63
2022-11-30T19:00:20.967Z,100812.00
2022-11-30T19:03:23.446Z,100812.69
2022-11-30T19:06:30.102Z,100809.25
2022-11-30T19:09:32.543Z,100813.03
2022-11-30T19:12:38.426Z,100806.69
2022-11-30T19:15:41.329Z,100812.69
2022-11-30T19:18:45.070Z,100821.28
2022-11-30T19:21:47.896Z,100821.28
2022-11-30T19:24:50.789Z,100816.63
2022-11-30T19:27:53.220Z,100823.00
2022-11-30T19:30:56.206Z,100829.38
2022-11-30T19:33:58.708Z,100818.53
2022-11-30T19:37:01.296Z,100828.16
2022-11-30T19:40:04.738Z,100830.75
2022-11-30T19:43:07.452Z,100832.97
2022-11-30T19:46:14.076Z,100832.97
2022-11-30T19:49:16.870Z,100818.38
2022-11-30T19:52:20.359Z,100821.78
2022-11-30T19:55:22.931Z,100825.59
2022-11-30T19:58:25.359Z,100820.94
2022-11-30T20:01:28.110Z,100821.13
2022-11-30T20:04:30.744Z,100813.72
2022-11-30T20:07:33.145Z,100807.03
2022-11-30T20:10:35.738Z,100803.59
2022-11-30T20:13:38.166Z,100806.34
2022-11-30T20:16:40.737Z,100803.59
2022-11-30T20:19:43.183Z,100805.28
2022-11-30T20:22:45.701Z,100802.72
2022-11-30T20:25:48.024Z,100807.38
2022-11-30T20:28:50.826Z,100801.66
2022-11-30T20:31:53.168Z,100807.19
2022-11-30T20:34:55.752Z,100814.41
2022-11-30T20:37:58.136Z,100809.09
2022-11-30T20:41:00.971Z,100809.09
2022-11-30T20:44:03.424Z,100806.16
2022-11-30T20:47:06.052Z,100804.28
2022-11-30T20:50:09.543Z,100805.47
2022-11-30T20:53:12.192Z,100795.34
2022-11-30T20:56:14.479Z,100795.50
2022-11-30T20:59:17.312Z,100810.63
2022-11-30T21:02:19.739Z,100813.53
2022-11-30T21:05:22.414Z,100808.91
2022-11-30T21:08:24.710Z,100806.16
2022-11-30T21:11:27.767Z,100807.88
2022-11-30T21:14:30.095Z,100808.91
2022-11-30T21:17:32.704Z,100815.28
2022-11-30T21:20:35.013Z,100824.53
2022-11-30T21:23:37.571Z,100823.69
2022-11-30T21:26:40.957Z,100835.38
2022-11-30T21:29:43.580Z,100851.72
2022-11-30T21:32:45.897Z,100850.50
2022-11-30T21:35:48.432Z,100846.91
2022-11-30T21:38:59.549Z,100852.56
2022-11-30T21:42:05.489Z,100850.69
2022-11-30T21:45:08.303Z,100863.56
2022-11-30T21:48:10.923Z,100865.31
2022-11-30T21:51:18.305Z,100863.75
2022-11-30T21:54:20.939Z,100863.75
2022-11-30T21:57:23.219Z,100870.81
2022-11-30T22:00:25.820Z,100869.06
2022-11-30T22:03:28.530Z,100875.44
2022-11-30T22:06:31.521Z,100877.31
2022-11-30T22:09:34.453Z,100863.75
2022-11-30T22:12:36.771Z,100859.97
2022-11-30T22:15:39.385Z,100857.22
2022-11-30T22:18:42.071Z,100862.72
2022-11-30T22:21:49.823Z,100860.66
2022-11-30T22:24:55.168Z,100852.41
2022-11-30T22:27:57.685Z,100850.84
2022-11-30T22:31:06.824Z,100858.06
2022-11-30T22:34:09.478Z,100850.00
2022-11-30T22:37:11.751Z,100847.94
2022-11-30T22:40:14.477Z,100846.91
2022-11-30T22:43:16.825Z,100845.34
2022-11-30T22:46:23.568Z,100835.03
2022-11-30T22:49:26.333Z,100835.91
2022-11-30T22:52:54.952Z,100839.34
2022-11-30T22:55:51.335Z,100833.16
2022-11-30T22:58:54.784Z,100820.25
2022-11-30T23:01:57.097Z,100834.84
2022-11-30T23:04:59.758Z,100832.97
2022-11-30T23:08:02.132Z,100844.66
2022-11-30T23:11:06.932Z,100844.50
2022-11-30T23:14:09.623Z,100840.03
2022-11-30T23:17:12.207Z,100835.72
2022-11-30T23:20:14.559Z,100838.31
2022-11-30T23:23:17.096Z,100828.16
2022-11-30T23:26:21.377Z,100831.25
2022-11-30T23:29:24.296Z,100832.47
2022-11-30T23:32:26.742Z,100833.66
2022-11-30T23:35:29.349Z,100838.13
2022-11-30T23:38:31.631Z,100845.19
2022-11-30T23:41:34.313Z,100857.22
2022-11-30T23:44:36.616Z,100864.63
2022-11-30T23:47:39.131Z,100852.56
2022-11-30T23:50:41.568Z,100848.13
2022-11-30T23:53:44.192Z,100859.12
2022-11-30T23:56:46.600Z,100855.16
2022-11-30T23:59:49.293Z,100854.47
